Terminal Aerodrome Forecast
Issued by NWS

Home | Current Version | Previous Version | Text Only | Print | Product List | Glossary On
Versions: 1 2 3 4 5 6 7 8 9 10 11 12 13 14 15 16 17 18 19 20 21 22 23 24 25 26 27 28 29 30 31 32 33 34 35 36
000
FTUS42 KGSP 251849 AAB
TAFHKY
TAF AMD
KHKY 251849Z 2519/2618 01004KT 1SM BR OVC002
      TEMPO 2519/2521 1/2SM FG OVC001
     FM252100 VRB03KT 3SM BR SCT010 BKN020
     FM260000 VRB03KT P6SM BKN035 PROB30 2604/2608 2SM TSRA OVC030CB
     FM260800 27003KT 6SM BR BKN018
     FM261300 33006KT P6SM BKN019=

USA.gov is the U.S. government's official web portal to all federal, state and local government web resources and services.